Veidnes — LLSD — position and weather

sailwx.info

Track history (hours):
 
Tides and Currents Weather Stations Pressure Air Temp Water Temp Dewpoint Dewpoint Depression Visibility Wind Speed Wind Dir Waves Ship Positions

Veidnes

Last reported at 2017-Oct-19 07:00 UTC. Time now 2017-Oct-19 07:30 UTC.
Position N 68°01' E 015°20'.

Length 51 m; draft 5 m.

Type: Cargo ship. MMSI: 259237000.

Date/timePositionNaut miles runAvg speedWind from/ knotsBaromVisibWave heightAir tempDewpointWater temp
2017-Oct-19 07:00N 68°01' E 015°20'0 0.0
2017-Oct-19 06:30N 68°01' E 015°20'0 0.0
2017-Oct-19 06:00N 68°01' E 015°20'0 0.0
2017-Oct-19 05:30N 68°01' E 015°20'0 0.0
2017-Oct-19 04:59N 68°01' E 015°20'0 0.0
2017-Oct-19 04:30N 68°01' E 015°20'0 0.0
2017-Oct-19 04:00N 68°01' E 015°20'0 0.0
2017-Oct-19 03:30N 68°01' E 015°20'0 0.0
2017-Oct-19 03:00N 68°01' E 015°20'0 0.0
2017-Oct-19 02:30N 68°01' E 015°20'0 0.0
2017-Oct-19 02:00N 68°01' E 015°20'0 0.0
2017-Oct-19 01:30N 68°01' E 015°20'0 0.0
2017-Oct-19 01:00N 68°01' E 015°20'0 0.0
2017-Oct-19 00:30N 68°01' E 015°20'0 0.0
2017-Oct-19 00:00N 68°01' E 015°20'0 0.0
2017-Oct-18 23:30N 68°01' E 015°20'0 0.0
2017-Oct-18 23:00N 68°01' E 015°20'0 0.0
2017-Oct-18 22:30N 68°01' E 015°20'4 7.7
2017-Oct-18 22:00N 67°57' E 015°20'5 9.1
2017-Oct-18 21:30N 67°54' E 015°11'5 9.8
2017-Oct-18 21:00N 67°54' E 014°58'510.2
2017-Oct-18 20:30N 67°52' E 014°46'510.2
2017-Oct-18 20:00N 67°49' E 014°35'510.1
2017-Oct-18 19:30N 67°44' E 014°31'5 9.0
2017-Oct-18 19:00N 67°41' E 014°40'4 8.4
2017-Oct-18 18:30N 67°39' E 014°50'510.1
2017-Oct-18 18:00N 67°38' E 015°02'2 4.8
2017-Oct-18 17:30N 67°39' E 015°07'0 0.0
2017-Oct-18 17:00N 67°39' E 015°07'1 1.4
2017-Oct-18 16:30N 67°39' E 015°07'5 9.7
2017-Oct-18 16:00N 67°38' E 014°54'5 9.6
2017-Oct-18 15:30N 67°40' E 014°43'510.4
2017-Oct-18 15:00N 67°43' E 014°31'1110.5
2017-Oct-18 14:00N 67°52' E 014°45'611.5
2017-Oct-18 13:30N 67°54' E 014°59'510.9
2017-Oct-18 13:00N 67°55' E 015°14'510.0
2017-Oct-18 12:30N 67°59' E 015°20'2 3.8
2017-Oct-18 11:58N 68°01' E 015°20'0 0.0
2017-Oct-18 11:25N 68°01' E 015°20'0 0.0
2017-Oct-18 11:01N 68°01' E 015°20'0 0.0
2017-Oct-18 10:31N 68°01' E 015°20'0 0.0
2017-Oct-18 10:00N 68°01' E 015°20'0 0.0
2017-Oct-18 09:30N 68°01' E 015°20'0 0.0
2017-Oct-18 08:54N 68°01' E 015°20'0 0.0
2017-Oct-18 08:30N 68°01' E 015°20'0 0.0
2017-Oct-18 08:00N 68°01' E 015°20'0 0.0
2017-Oct-18 07:30N 68°01' E 015°20'0 0.0
2017-Oct-18 07:00N 68°01' E 015°20'0 0.0
2017-Oct-18 06:30N 68°01' E 015°20'0 0.0
2017-Oct-18 05:54N 68°01' E 015°20'0 0.0
2017-Oct-18 05:30N 68°01' E 015°20'0 0.0
2017-Oct-18 04:45N 68°01' E 015°20'0 0.0
2017-Oct-18 04:30N 68°01' E 015°20'0 0.0
2017-Oct-18 03:57N 68°01' E 015°20'0 0.0
2017-Oct-18 03:30N 68°01' E 015°20'0 0.0
2017-Oct-18 02:57N 68°01' E 015°20'0 0.0
2017-Oct-18 02:27N 68°01' E 015°20'0 0.0
2017-Oct-18 02:00N 68°01' E 015°20'0 0.0
2017-Oct-18 01:29N 68°01' E 015°20'0 0.0
2017-Oct-18 01:00N 68°01' E 015°20'0 0.0
2017-Oct-18 00:30N 68°01' E 015°20'0 0.0
2017-Oct-18 00:00N 68°01' E 015°20'0 0.0
2017-Oct-17 23:30N 68°01' E 015°20'0 0.0
2017-Oct-17 23:00N 68°01' E 015°20'0 0.0
2017-Oct-17 22:30N 68°01' E 015°20'0 0.0
2017-Oct-17 22:00N 68°01' E 015°20'0 0.0
2017-Oct-17 21:30N 68°01' E 015°20'1 2.9
2017-Oct-17 21:00N 67°60' E 015°21'5 9.3
2017-Oct-17 20:30N 67°55' E 015°16'5 9.6
2017-Oct-17 20:00N 67°55' E 015°04'510.2
2017-Oct-17 19:30N 67°53' E 014°51'510.7
2017-Oct-17 19:00N 67°50' E 014°39'510.4
2017-Oct-17 18:30N 67°46' E 014°31'4 9.0
2017-Oct-17 18:00N 67°42' E 014°36'4 8.6
2017-Oct-17 17:30N 67°39' E 014°45'510.2
2017-Oct-17 17:00N 67°40' E 014°59'510.2
2017-Oct-17 16:30N 67°43' E 015°10'5 9.7
2017-Oct-17 15:59N 67°45' E 015°22'2 3.8
2017-Oct-17 15:29N 67°44' E 015°27'0 0.0
2017-Oct-17 14:55N 67°44' E 015°27'4 8.1
2017-Oct-17 14:29N 67°44' E 015°17'511.0
2017-Oct-17 14:00N 67°41' E 015°06'611.3
2017-Oct-17 13:29N 67°39' E 014°52'4 8.6
2017-Oct-17 13:00N 67°41' E 014°43'611.4
2017-Oct-17 12:30N 67°47' E 014°44'5 9.2
2017-Oct-17 12:00N 67°51' E 014°48'5 9.6
2017-Oct-17 11:30N 67°54' E 014°57'510.5
2017-Oct-17 11:00N 67°54' E 015°11'5 9.6
2017-Oct-17 10:30N 67°58' E 015°20'3 6.3
2017-Oct-17 09:59N 68°01' E 015°20'0 0.0
2017-Oct-17 09:29N 68°01' E 015°20'0 0.0
2017-Oct-17 09:00N 68°01' E 015°20'0 0.0
2017-Oct-17 08:30N 68°01' E 015°20'0 0.0
2017-Oct-17 08:00N 68°01' E 015°20'0 0.0
2017-Oct-17 07:30N 68°01' E 015°20'0 0.0
2017-Oct-17 07:00N 68°01' E 015°20'0 0.0
2017-Oct-17 06:31N 68°01' E 015°20'0 0.0
2017-Oct-17 06:00N 68°01' E 015°20'0 0.0
2017-Oct-17 05:30N 68°01' E 015°20'0 0.0
2017-Oct-17 04:59N 68°01' E 015°20'0 0.0
2017-Oct-17 04:30N 68°01' E 015°20'0 0.0
2017-Oct-17 04:00N 68°01' E 015°20'0 0.0
2017-Oct-17 03:30N 68°01' E 015°20'0 0.0
2017-Oct-17 03:00N 68°01' E 015°20'0 0.0
2017-Oct-17 02:30N 68°01' E 015°20'0 0.0
2017-Oct-17 02:00N 68°01' E 015°20'0 0.0
2017-Oct-17 01:30N 68°01' E 015°20'0 0.0
2017-Oct-17 01:00N 68°01' E 015°20'0 0.0
2017-Oct-17 00:30N 68°01' E 015°20'0 0.0
2017-Oct-17 00:00N 68°01' E 015°20'0 0.0
2017-Oct-16 23:30N 68°01' E 015°20'0 0.0
2017-Oct-16 22:59N 68°01' E 015°20'0 0.0
2017-Oct-16 22:30N 68°01' E 015°20'0 0.0
2017-Oct-16 22:00N 68°01' E 015°20'0 0.0
2017-Oct-16 21:30N 68°01' E 015°20'2 3.6
2017-Oct-16 21:00N 67°59' E 015°20'5 9.1
2017-Oct-16 20:30N 67°55' E 015°16'5 9.6
2017-Oct-16 20:00N 67°55' E 015°03'510.3
2017-Oct-16 19:30N 67°53' E 014°50'510.3
2017-Oct-16 19:00N 67°50' E 014°39'510.0
2017-Oct-16 18:30N 67°46' E 014°31'4 8.3
2017-Oct-16 18:00N 67°42' E 014°35'4 7.9
2017-Oct-16 17:30N 67°40' E 014°42'4 8.9
2017-Oct-16 17:00N 67°38' E 014°54'4 8.8
2017-Oct-16 16:30N 67°38' E 015°05'1 2.6
2017-Oct-16 16:00N 67°39' E 015°07'0 0.0
2017-Oct-16 15:30N 67°39' E 015°07'0 0.5
2017-Oct-16 14:59N 67°39' E 015°08'10 9.8
2017-Oct-16 14:00N 67°40' E 014°42'611.4
2017-Oct-16 13:30N 67°46' E 014°43'510.0
2017-Oct-16 13:00N 67°50' E 014°47'4 8.6
2017-Oct-16 12:30N 67°54' E 014°54'510.5
2017-Oct-16 12:00N 67°54' E 015°08'510.2
2017-Oct-16 11:30N 67°57' E 015°20'4 8.6
2017-Oct-16 11:00N 68°01' E 015°20'0 0.0
2017-Oct-16 10:30N 68°01' E 015°20'0 0.0
2017-Oct-16 10:00N 68°01' E 015°20'0 0.0
2017-Oct-16 09:30N 68°01' E 015°20'0 0.0
2017-Oct-16 09:00N 68°01' E 015°20'0 0.0
2017-Oct-16 08:30N 68°01' E 015°20'0 0.0
2017-Oct-16 08:00N 68°01' E 015°20'0 0.0
2017-Oct-16 07:30N 68°01' E 015°20'0 0.0
2017-Oct-16 07:00N 68°01' E 015°20'0 0.0
2017-Oct-16 06:30N 68°01' E 015°20'0 0.0
2017-Oct-16 06:00N 68°01' E 015°20'0 0.0
2017-Oct-16 05:30N 68°01' E 015°20'0 0.0
2017-Oct-16 05:00N 68°01' E 015°20'0 0.0
2017-Oct-16 04:30N 68°01' E 015°20'0 0.0
2017-Oct-16 04:01N 68°01' E 015°20'0 0.0
2017-Oct-16 03:31N 68°01' E 015°20'0 0.0
2017-Oct-16 03:00N 68°01' E 015°20'0 0.0
2017-Oct-16 02:30N 68°01' E 015°20'0 0.0
2017-Oct-16 02:00N 68°01' E 015°20'0 0.0
2017-Oct-16 01:30N 68°01' E 015°20'0 0.0
2017-Oct-16 00:50N 68°01' E 015°20'0 0.0
2017-Oct-16 00:30N 68°01' E 015°20'0 0.0
2017-Oct-16 00:00N 68°01' E 015°20'0 0.0
2017-Oct-15 23:30N 68°01' E 015°20'0 0.0
2017-Oct-15 23:00N 68°01' E 015°20'0 0.0
2017-Oct-15 22:30N 68°01' E 015°20'0 0.0
2017-Oct-15 22:00N 68°01' E 015°20'1 1.9
2017-Oct-15 21:30N 68°00' E 015°21'5 9.4
2017-Oct-15 21:00N 67°55' E 015°18'4 9.1
2017-Oct-15 20:30N 67°55' E 015°07'5 9.7
2017-Oct-15 20:00N 67°54' E 014°54'510.0
2017-Oct-15 19:30N 67°51' E 014°42'510.1
2017-Oct-15 19:00N 67°48' E 014°32'5 9.7
2017-Oct-15 18:30N 67°43' E 014°31'5 9.2
2017-Oct-15 18:00N 67°41' E 014°42'4 7.9
2017-Oct-15 17:30N 67°39' E 014°51'5 9.7
2017-Oct-15 16:59N 67°38' E 015°04'2 3.8
2017-Oct-15 16:30N 67°39' E 015°07'0 0.0
2017-Oct-15 16:00N 67°39' E 015°07'1 2.2
2017-Oct-15 15:30N 67°38' E 015°06'510.2
2017-Oct-15 15:00N 67°39' E 014°53'6 5.9
2017-Oct-15 14:00N 67°44' E 014°46'0 0.0
2017-Oct-15 13:30N 67°44' E 014°46'0 0.0
2017-Oct-15 13:00N 67°44' E 014°46'0 0.0
2017-Oct-15 12:30N 67°44' E 014°46'0 0.0
2017-Oct-15 11:59N 67°44' E 014°46'0 0.0
2017-Oct-15 11:29N 67°44' E 014°46'0 0.0
2017-Oct-15 11:00N 67°44' E 014°46'2 3.4
2017-Oct-15 10:30N 67°45' E 014°43'5 9.8
2017-Oct-15 10:01N 67°50' E 014°46'5 9.2
2017-Oct-15 09:30N 67°55' E 014°44'5 9.7
2017-Oct-15 09:00N 67°59' E 014°48'5 9.5
2017-Oct-15 08:30N 68°04' E 014°50'5 9.4
2017-Oct-15 08:00N 68°08' E 014°52'4 9.0
2017-Oct-15 07:30N 68°13' E 014°55'4 8.9
2017-Oct-15 07:00N 68°17' E 014°58'5 9.0
2017-Oct-15 06:30N 68°21' E 015°03'5 9.1
2017-Oct-15 06:00N 68°25' E 015°08'4 8.6
2017-Oct-15 05:30N 68°30' E 015°12'4 8.6
2017-Oct-15 05:00N 68°34' E 015°11'5 9.5
2017-Oct-15 04:30N 68°38' E 015°19'5 9.9
2017-Oct-15 04:00N 68°42' E 015°26'5 9.9
2017-Oct-15 03:30N 68°47' E 015°25'510.1
2017-Oct-15 02:59N 68°52' E 015°23'3 6.4
2017-Oct-15 02:30N 68°54' E 015°17'0 0.0
2017-Oct-15 02:00N 68°54' E 015°17'3 6.9
2017-Oct-15 01:30N 68°52' E 015°25'510.4
2017-Oct-15 01:00N 68°47' E 015°26'611.3
2017-Oct-15 00:30N 68°41' E 015°26'5 9.7
2017-Oct-15 00:00N 68°37' E 015°19'5 9.5
2017-Oct-14 23:30N 68°33' E 015°11'5 9.0
2017-Oct-14 23:00N 68°29' E 015°13'5 9.9
2017-Oct-14 22:30N 68°25' E 015°07'510.0
2017-Oct-14 22:00N 68°20' E 015°01'5 9.4
2017-Oct-14 21:30N 68°16' E 014°57'5 9.3
2017-Oct-14 21:00N 68°11' E 014°55'4 8.9
2017-Oct-14 20:30N 68°07' E 014°52'5 9.4
2017-Oct-14 20:00N 68°02' E 014°49'5 9.3
2017-Oct-14 19:30N 67°58' E 014°47'5 9.6
2017-Oct-14 19:00N 67°53' E 014°44'5 9.5
2017-Oct-14 18:30N 67°49' E 014°36'5 9.1
2017-Oct-14 18:00N 67°45' E 014°32'4 7.6
2017-Oct-14 17:30N 67°42' E 014°37'4 7.6
2017-Oct-14 17:00N 67°39' E 014°44'5 9.1
2017-Oct-14 16:30N 67°39' E 014°56'5 9.6
2017-Oct-14 16:00N 67°42' E 015°07'5 9.4
2017-Oct-14 15:30N 67°44' E 015°17'4 6.6
2017-Oct-14 14:58N 67°44' E 015°27'0 0.0
2017-Oct-14 14:30N 67°44' E 015°27'0 0.0
2017-Oct-14 14:00N 67°44' E 015°27'0 0.5
2017-Oct-14 13:30N 67°44' E 015°26'3 5.4
2017-Oct-14 13:00N 67°45' E 015°19'4 7.9
2017-Oct-14 12:30N 67°43' E 015°11'4 8.6
2017-Oct-14 12:00N 67°40' E 015°01'4 8.4
2017-Oct-14 11:30N 67°39' E 014°51'3 6.6
2017-Oct-14 10:59N 67°40' E 014°43'4 9.3
2017-Oct-14 10:30N 67°45' E 014°43'5 9.3
2017-Oct-14 10:00N 67°49' E 014°45'3 7.0
2017-Oct-14 09:30N 67°53' E 014°44'510.2
2017-Oct-14 09:00N 67°58' E 014°47'510.1
2017-Oct-14 08:29N 68°03' E 014°50'510.3
2017-Oct-14 08:00N 68°08' E 014°53'510.1
2017-Oct-14 07:30N 68°13' E 014°56'510.3
2017-Oct-14 07:00N 68°18' E 014°58'510.3
2017-Oct-14 06:30N 68°23' E 015°04'510.0
2017-Oct-14 06:00N 68°27' E 015°11'4 9.2
2017-Oct-14 05:30N 68°32' E 015°09'510.2
2017-Oct-14 05:00N 68°36' E 015°16'510.7
2017-Oct-14 04:30N 68°40' E 015°25'5 9.0
2017-Oct-14 04:00N 68°45' E 015°25'510.6
2017-Oct-14 03:30N 68°50' E 015°25'510.0
2017-Oct-14 03:00N 68°54' E 015°18'0 0.2
2017-Oct-14 02:30N 68°54' E 015°17'2 3.2
2017-Oct-14 02:00N 68°54' E 015°22'510.1
2017-Oct-14 01:31N 68°49' E 015°26'610.9
2017-Oct-14 01:00N 68°44' E 015°26'510.5
2017-Oct-14 00:30N 68°39' E 015°22'5 9.9
2017-Oct-14 00:00N 68°35' E 015°13'5 9.5
2017-Oct-13 23:30N 68°30' E 015°10'4 8.5
2017-Oct-13 23:00N 68°26' E 015°10'510.0
2017-Oct-13 22:30N 68°22' E 015°03'5 9.3
2017-Oct-13 22:00N 68°18' E 014°58'5 9.6
2017-Oct-13 21:30N 68°13' E 014°56'5 9.3
2017-Oct-13 21:00N 68°08' E 014°53'5 9.0
2017-Oct-13 20:30N 68°04' E 014°50'5 9.3
2017-Oct-13 20:00N 67°59' E 014°47'5 9.4
2017-Oct-13 19:30N 67°55' E 014°45'5 9.1
2017-Oct-13 18:59N 67°51' E 014°39'5 9.5
2017-Oct-13 18:30N 67°47' E 014°32'4 8.8
2017-Oct-13 18:00N 67°43' E 014°33'4 8.7
2017-Oct-13 17:30N 67°40' E 014°42'5 9.3
2017-Oct-13 17:00N 67°38' E 014°54'5 9.4
2017-Oct-13 16:29N 67°39' E 015°06'1 1.6
2017-Oct-13 15:59N 67°39' E 015°07'0 0.0
2017-Oct-13 15:30N 67°39' E 015°07'2 4.1
2017-Oct-13 14:59N 67°38' E 015°03'510.1
2017-Oct-13 14:30N 67°39' E 014°50'4 8.1
2017-Oct-13 14:00N 67°42' E 014°42'510.7
2017-Oct-13 13:30N 67°47' E 014°43'4 8.0
2017-Oct-13 13:00N 67°51' E 014°47'4 8.9
2017-Oct-13 12:31N 67°54' E 014°55'610.9
2017-Oct-13 12:00N 67°54' E 015°10'510.3
2017-Oct-13 11:30N 67°57' E 015°20'4 7.3
2017-Oct-13 11:00N 68°01' E 015°20'0 0.0
2017-Oct-13 10:30N 68°01' E 015°20'0 0.0
2017-Oct-13 10:00N 68°01' E 015°20'0 0.0
2017-Oct-13 09:30N 68°01' E 015°20'0 0.0
2017-Oct-13 09:00N 68°01' E 015°20'0 0.0
2017-Oct-13 08:30N 68°01' E 015°20'0 0.0
2017-Oct-13 08:00N 68°01' E 015°20'23 1.5
2017-Oct-12 16:24N 67°38' E 015°06'4 9.3
2017-Oct-12 15:59N 67°38' E 014°56'510.8
2017-Oct-12 15:30N 67°39' E 014°43'610.9
2017-Oct-12 15:00N 67°45' E 014°43'5 9.7
2017-Oct-12 14:30N 67°50' E 014°45'2 3.6
2017-Oct-12 14:00N 67°51' E 014°47'510.2
2017-Oct-12 13:30N 67°54' E 014°58'510.5
2017-Oct-12 13:00N 67°54' E 015°12'5 9.8
2017-Oct-12 12:30N 67°58' E 015°20'3 4.7
2017-Oct-12 11:54N 68°01' E 015°20'0 0.1
2017-Oct-12 11:24N 68°01' E 015°20'0 0.0
2017-Oct-12 11:00N 68°01' E 015°20'0 0.0
2017-Oct-12 10:30N 68°01' E 015°20'0 0.0
2017-Oct-12 10:00N 68°01' E 015°20'0 0.0
2017-Oct-12 09:30N 68°01' E 015°20'0 0.0
2017-Oct-12 09:00N 68°01' E 015°20'0 0.0
2017-Oct-12 08:30N 68°01' E 015°20'0 0.0
2017-Oct-12 08:00N 68°01' E 015°20'0 0.0
2017-Oct-12 07:30N 68°01' E 015°20'0 0.0
2017-Oct-12 07:00N 68°01' E 015°20'0 0.0
2017-Oct-12 06:30N 68°01' E 015°20'0 0.0
2017-Oct-12 06:00N 68°01' E 015°20'0 0.0
2017-Oct-12 05:30N 68°01' E 015°20'0 0.0
2017-Oct-12 05:00N 68°01' E 015°20'0 0.0
2017-Oct-12 04:26N 68°01' E 015°20'0 0.0
2017-Oct-12 03:59N 68°01' E 015°20'0 0.0
2017-Oct-12 03:29N 68°01' E 015°20'0 0.0
2017-Oct-12 02:59N 68°01' E 015°20'0 0.0
2017-Oct-12 02:05N 68°01' E 015°20'0 0.0
2017-Oct-12 01:59N 68°01' E 015°20'0 0.0
2017-Oct-12 01:29N 68°01' E 015°20'0 0.0
2017-Oct-12 00:41N 68°01' E 015°20'0 0.0
2017-Oct-12 00:29N 68°01' E 015°20'0 0.0
2017-Oct-12 00:00N 68°01' E 015°20'0 0.0
2017-Oct-11 23:03N 68°01' E 015°20'0 0.0
2017-Oct-11 22:46N 68°01' E 015°20'0 0.0
2017-Oct-11 22:04N 68°01' E 015°20'0 0.1
2017-Oct-11 22:00N 68°01' E 015°20'4 7.9
2017-Oct-11 21:30N 67°57' E 015°20'5 9.1
2017-Oct-11 21:00N 67°54' E 015°11'5 9.3
2017-Oct-11 20:30N 67°54' E 014°58'5 9.8
2017-Oct-11 20:00N 67°52' E 014°47'5 9.7
2017-Oct-11 19:30N 67°49' E 014°36'5 9.5
2017-Oct-11 19:00N 67°45' E 014°31'4 8.8
2017-Oct-11 18:30N 67°42' E 014°39'4 8.7
2017-Oct-11 18:00N 67°39' E 014°48'510.7
2017-Oct-11 17:30N 67°38' E 015°02'3 5.1
2017-Oct-11 17:00N 67°39' E 015°07'22 1.3
2017-Oct-11 00:00N 68°01' E 015°20'0 0.0
2017-Oct-10 23:30N 68°01' E 015°20'0 0.0
2017-Oct-10 22:53N 68°01' E 015°20'0 0.0
2017-Oct-10 22:30N 68°01' E 015°20'0 0.0
2017-Oct-10 22:00N 68°01' E 015°20'3 6.0
2017-Oct-10 21:30N 67°58' E 015°20'4 8.4
2017-Oct-10 21:00N 67°55' E 015°14'4 8.9
2017-Oct-10 20:30N 67°55' E 015°02'5 9.3
2017-Oct-10 20:00N 67°53' E 014°50'4 9.2
2017-Oct-10 19:30N 67°51' E 014°40'4 8.9
2017-Oct-10 19:00N 67°47' E 014°32'5 9.2
2017-Oct-10 18:30N 67°43' E 014°32'5 9.5
2017-Oct-10 18:00N 67°40' E 014°43'4 8.2
2017-Oct-10 17:30N 67°39' E 014°52'5 9.8
2017-Oct-10 17:00N 67°38' E 015°05'1 2.4
2017-Oct-10 16:27N 67°39' E 015°07'0 0.0
2017-Oct-10 16:00N 67°39' E 015°07'0 0.1
2017-Oct-10 15:30N 67°39' E 015°07'4 8.7
2017-Oct-10 15:00N 67°38' E 014°56'9 8.6
2017-Oct-10 14:00N 67°45' E 014°43'510.2
2017-Oct-10 13:30N 67°50' E 014°46'4 8.5
2017-Oct-10 13:00N 67°53' E 014°53'510.8
2017-Oct-10 12:30N 67°55' E 015°07'510.2
2017-Oct-10 12:00N 67°56' E 015°20'510.1
2017-Oct-10 11:30N 68°01' E 015°20'0 0.0
2017-Oct-10 11:00N 68°01' E 015°20'0 0.0
2017-Oct-10 10:30N 68°01' E 015°20'0 0.0
2017-Oct-10 10:00N 68°01' E 015°20'0 0.0
2017-Oct-10 09:30N 68°01' E 015°20'0 0.0
2017-Oct-10 09:00N 68°01' E 015°20'0 0.0
2017-Oct-10 08:30N 68°01' E 015°20'0 0.0
2017-Oct-10 08:00N 68°01' E 015°20'0 0.0
2017-Oct-10 07:30N 68°01' E 015°20'0 0.0
2017-Oct-10 07:00N 68°01' E 015°20'0 0.0
2017-Oct-10 06:30N 68°01' E 015°20'0 0.0
2017-Oct-10 06:00N 68°01' E 015°20'0 0.0
2017-Oct-10 05:30N 68°01' E 015°20'0 0.0
2017-Oct-10 05:00N 68°01' E 015°20'0 0.0
2017-Oct-10 04:30N 68°01' E 015°20'0 0.0
2017-Oct-10 04:00N 68°01' E 015°20'0 0.0
2017-Oct-10 03:30N 68°01' E 015°20'0 0.0
2017-Oct-10 03:00N 68°01' E 015°20'0 0.0
2017-Oct-10 02:30N 68°01' E 015°20'0 0.0
2017-Oct-10 02:00N 68°01' E 015°20'0 0.0
2017-Oct-10 01:30N 68°01' E 015°20'0 0.0
2017-Oct-10 01:00N 68°01' E 015°20'0 0.0
2017-Oct-10 00:30N 68°01' E 015°20'0 0.0
2017-Oct-09 23:59N 68°01' E 015°20'0 0.0
2017-Oct-09 23:30N 68°01' E 015°20'0 0.0
2017-Oct-09 23:00N 68°01' E 015°20'0 0.0
2017-Oct-09 22:29N 68°01' E 015°20'2 3.4
2017-Oct-09 22:00N 67°59' E 015°20'4 8.8
2017-Oct-09 21:30N 67°55' E 015°17'4 8.9
2017-Oct-09 21:00N 67°55' E 015°06'5 9.4
2017-Oct-09 20:30N 67°54' E 014°53'5 9.4
2017-Oct-09 20:00N 67°51' E 014°42'5 9.3
2017-Oct-09 19:30N 67°48' E 014°33'5 9.5
2017-Oct-09 19:00N 67°44' E 014°31'5 9.2
2017-Oct-09 18:30N 67°41' E 014°41'4 8.1
2017-Oct-09 18:00N 67°39' E 014°50'5 9.7
2017-Oct-09 17:30N 67°38' E 015°03'2 4.3
2017-Oct-09 17:00N 67°39' E 015°07'0 0.0
2017-Oct-09 16:30N 67°39' E 015°07'0 0.0
2017-Oct-09 16:00N 67°39' E 015°07'0 0.0
2017-Oct-09 15:30N 67°39' E 015°07'1 2.9
2017-Oct-09 15:00N 67°38' E 015°05'510.6
2017-Oct-09 14:29N 67°39' E 014°51'4 8.8
2017-Oct-09 14:00N 67°42' E 014°42'611.6
2017-Oct-09 13:30N 67°47' E 014°44'4 8.0
2017-Oct-09 12:59N 67°51' E 014°48'4 9.1
2017-Oct-09 12:30N 67°54' E 014°57'510.7
2017-Oct-09 11:59N 67°54' E 015°11'510.0
2017-Oct-09 11:30N 67°58' E 015°20'3 5.6
2017-Oct-09 10:55N 68°01' E 015°20'0 0.0
2017-Oct-09 10:25N 68°01' E 015°20'0 0.0
2017-Oct-09 09:58N 68°01' E 015°20'0 0.0
2017-Oct-09 09:25N 68°01' E 015°20'0 0.0
2017-Oct-09 08:55N 68°01' E 015°20'0 0.0
2017-Oct-09 08:25N 68°01' E 015°20'0 0.0
2017-Oct-09 07:55N 68°01' E 015°20'0 0.0
2017-Oct-09 07:25N 68°01' E 015°20'  
Track history (hours):
 
Tides and Currents Weather Stations Pressure Air Temp Water Temp Dewpoint Dewpoint Depression Visibility Wind Speed Wind Dir Waves Ship Positions

Veidnes

Last reported at 2017-Oct-19 07:00 UTC. Time now 2017-Oct-19 07:30 UTC.
Position N 68°01' E 015°20'.

Length 51 m; draft 5 m.

Type: Cargo ship. MMSI: 259237000.

Date/timePositionNaut miles runAvg speedWind from/ knotsBaromVisibWave heightAir tempDewpointWater temp
2017-Oct-19 07:00N 68°01' E 015°20'0 0.0
2017-Oct-19 06:30N 68°01' E 015°20'0 0.0
2017-Oct-19 06:00N 68°01' E 015°20'0 0.0
2017-Oct-19 05:30N 68°01' E 015°20'0 0.0
2017-Oct-19 04:59N 68°01' E 015°20'0 0.0
2017-Oct-19 04:30N 68°01' E 015°20'0 0.0
2017-Oct-19 04:00N 68°01' E 015°20'0 0.0
2017-Oct-19 03:30N 68°01' E 015°20'0 0.0
2017-Oct-19 03:00N 68°01' E 015°20'0 0.0
2017-Oct-19 02:30N 68°01' E 015°20'0 0.0
2017-Oct-19 02:00N 68°01' E 015°20'0 0.0
2017-Oct-19 01:30N 68°01' E 015°20'0 0.0
2017-Oct-19 01:00N 68°01' E 015°20'0 0.0
2017-Oct-19 00:30N 68°01' E 015°20'0 0.0
2017-Oct-19 00:00N 68°01' E 015°20'0 0.0
2017-Oct-18 23:30N 68°01' E 015°20'0 0.0
2017-Oct-18 23:00N 68°01' E 015°20'0 0.0
2017-Oct-18 22:30N 68°01' E 015°20'4 7.7
2017-Oct-18 22:00N 67°57' E 015°20'5 9.1
2017-Oct-18 21:30N 67°54' E 015°11'5 9.8
2017-Oct-18 21:00N 67°54' E 014°58'510.2
2017-Oct-18 20:30N 67°52' E 014°46'510.2
2017-Oct-18 20:00N 67°49' E 014°35'510.1
2017-Oct-18 19:30N 67°44' E 014°31'5 9.0
2017-Oct-18 19:00N 67°41' E 014°40'4 8.4
2017-Oct-18 18:30N 67°39' E 014°50'510.1
2017-Oct-18 18:00N 67°38' E 015°02'2 4.8
2017-Oct-18 17:30N 67°39' E 015°07'0 0.0
2017-Oct-18 17:00N 67°39' E 015°07'1 1.4
2017-Oct-18 16:30N 67°39' E 015°07'5 9.7
2017-Oct-18 16:00N 67°38' E 014°54'5 9.6
2017-Oct-18 15:30N 67°40' E 014°43'510.4
2017-Oct-18 15:00N 67°43' E 014°31'1110.5
2017-Oct-18 14:00N 67°52' E 014°45'611.5
2017-Oct-18 13:30N 67°54' E 014°59'510.9
2017-Oct-18 13:00N 67°55' E 015°14'510.0
2017-Oct-18 12:30N 67°59' E 015°20'2 3.8
2017-Oct-18 11:58N 68°01' E 015°20'0 0.0
2017-Oct-18 11:25N 68°01' E 015°20'0 0.0
2017-Oct-18 11:01N 68°01' E 015°20'0 0.0
2017-Oct-18 10:31N 68°01' E 015°20'0 0.0
2017-Oct-18 10:00N 68°01' E 015°20'0 0.0
2017-Oct-18 09:30N 68°01' E 015°20'0 0.0
2017-Oct-18 08:54N 68°01' E 015°20'0 0.0
2017-Oct-18 08:30N 68°01' E 015°20'0 0.0
2017-Oct-18 08:00N 68°01' E 015°20'0 0.0
2017-Oct-18 07:30N 68°01' E 015°20'0 0.0
2017-Oct-18 07:00N 68°01' E 015°20'0 0.0
2017-Oct-18 06:30N 68°01' E 015°20'0 0.0
2017-Oct-18 05:54N 68°01' E 015°20'0 0.0
2017-Oct-18 05:30N 68°01' E 015°20'0 0.0
2017-Oct-18 04:45N 68°01' E 015°20'0 0.0
2017-Oct-18 04:30N 68°01' E 015°20'0 0.0
2017-Oct-18 03:57N 68°01' E 015°20'0 0.0
2017-Oct-18 03:30N 68°01' E 015°20'0 0.0
2017-Oct-18 02:57N 68°01' E 015°20'0 0.0
2017-Oct-18 02:27N 68°01' E 015°20'0 0.0
2017-Oct-18 02:00N 68°01' E 015°20'0 0.0
2017-Oct-18 01:29N 68°01' E 015°20'0 0.0
2017-Oct-18 01:00N 68°01' E 015°20'0 0.0
2017-Oct-18 00:30N 68°01' E 015°20'0 0.0
2017-Oct-18 00:00N 68°01' E 015°20'0 0.0
2017-Oct-17 23:30N 68°01' E 015°20'0 0.0
2017-Oct-17 23:00N 68°01' E 015°20'0 0.0
2017-Oct-17 22:30N 68°01' E 015°20'0 0.0
2017-Oct-17 22:00N 68°01' E 015°20'0 0.0
2017-Oct-17 21:30N 68°01' E 015°20'1 2.9
2017-Oct-17 21:00N 67°60' E 015°21'5 9.3
2017-Oct-17 20:30N 67°55' E 015°16'5 9.6
2017-Oct-17 20:00N 67°55' E 015°04'510.2
2017-Oct-17 19:30N 67°53' E 014°51'510.7
2017-Oct-17 19:00N 67°50' E 014°39'510.4
2017-Oct-17 18:30N 67°46' E 014°31'4 9.0
2017-Oct-17 18:00N 67°42' E 014°36'4 8.6
2017-Oct-17 17:30N 67°39' E 014°45'510.2
2017-Oct-17 17:00N 67°40' E 014°59'510.2
2017-Oct-17 16:30N 67°43' E 015°10'5 9.7
2017-Oct-17 15:59N 67°45' E 015°22'2 3.8
2017-Oct-17 15:29N 67°44' E 015°27'0 0.0
2017-Oct-17 14:55N 67°44' E 015°27'4 8.1
2017-Oct-17 14:29N 67°44' E 015°17'511.0
2017-Oct-17 14:00N 67°41' E 015°06'611.3
2017-Oct-17 13:29N 67°39' E 014°52'4 8.6
2017-Oct-17 13:00N 67°41' E 014°43'611.4
2017-Oct-17 12:30N 67°47' E 014°44'5 9.2
2017-Oct-17 12:00N 67°51' E 014°48'5 9.6
2017-Oct-17 11:30N 67°54' E 014°57'510.5
2017-Oct-17 11:00N 67°54' E 015°11'5 9.6
2017-Oct-17 10:30N 67°58' E 015°20'3 6.3
2017-Oct-17 09:59N 68°01' E 015°20'0 0.0
2017-Oct-17 09:29N 68°01' E 015°20'0 0.0
2017-Oct-17 09:00N 68°01' E 015°20'0 0.0
2017-Oct-17 08:30N 68°01' E 015°20'0 0.0
2017-Oct-17 08:00N 68°01' E 015°20'0 0.0
2017-Oct-17 07:30N 68°01' E 015°20'0 0.0
2017-Oct-17 07:00N 68°01' E 015°20'0 0.0
2017-Oct-17 06:31N 68°01' E 015°20'0 0.0
2017-Oct-17 06:00N 68°01' E 015°20'0 0.0
2017-Oct-17 05:30N 68°01' E 015°20'0 0.0
2017-Oct-17 04:59N 68°01' E 015°20'0 0.0
2017-Oct-17 04:30N 68°01' E 015°20'0 0.0
2017-Oct-17 04:00N 68°01' E 015°20'0 0.0
2017-Oct-17 03:30N 68°01' E 015°20'0 0.0
2017-Oct-17 03:00N 68°01' E 015°20'0 0.0
2017-Oct-17 02:30N 68°01' E 015°20'0 0.0
2017-Oct-17 02:00N 68°01' E 015°20'0 0.0
2017-Oct-17 01:30N 68°01' E 015°20'0 0.0
2017-Oct-17 01:00N 68°01' E 015°20'0 0.0
2017-Oct-17 00:30N 68°01' E 015°20'0 0.0
2017-Oct-17 00:00N 68°01' E 015°20'0 0.0
2017-Oct-16 23:30N 68°01' E 015°20'0 0.0
2017-Oct-16 22:59N 68°01' E 015°20'0 0.0
2017-Oct-16 22:30N 68°01' E 015°20'0 0.0
2017-Oct-16 22:00N 68°01' E 015°20'0 0.0
2017-Oct-16 21:30N 68°01' E 015°20'2 3.6
2017-Oct-16 21:00N 67°59' E 015°20'5 9.1
2017-Oct-16 20:30N 67°55' E 015°16'5 9.6
2017-Oct-16 20:00N 67°55' E 015°03'510.3
2017-Oct-16 19:30N 67°53' E 014°50'510.3
2017-Oct-16 19:00N 67°50' E 014°39'510.0
2017-Oct-16 18:30N 67°46' E 014°31'4 8.3
2017-Oct-16 18:00N 67°42' E 014°35'4 7.9
2017-Oct-16 17:30N 67°40' E 014°42'4 8.9
2017-Oct-16 17:00N 67°38' E 014°54'4 8.8
2017-Oct-16 16:30N 67°38' E 015°05'1 2.6
2017-Oct-16 16:00N 67°39' E 015°07'0 0.0
2017-Oct-16 15:30N 67°39' E 015°07'0 0.5
2017-Oct-16 14:59N 67°39' E 015°08'10 9.8
2017-Oct-16 14:00N 67°40' E 014°42'611.4
2017-Oct-16 13:30N 67°46' E 014°43'510.0
2017-Oct-16 13:00N 67°50' E 014°47'4 8.6
2017-Oct-16 12:30N 67°54' E 014°54'510.5
2017-Oct-16 12:00N 67°54' E 015°08'510.2
2017-Oct-16 11:30N 67°57' E 015°20'4 8.6
2017-Oct-16 11:00N 68°01' E 015°20'0 0.0
2017-Oct-16 10:30N 68°01' E 015°20'0 0.0
2017-Oct-16 10:00N 68°01' E 015°20'0 0.0
2017-Oct-16 09:30N 68°01' E 015°20'0 0.0
2017-Oct-16 09:00N 68°01' E 015°20'0 0.0
2017-Oct-16 08:30N 68°01' E 015°20'0 0.0
2017-Oct-16 08:00N 68°01' E 015°20'0 0.0
2017-Oct-16 07:30N 68°01' E 015°20'0 0.0
2017-Oct-16 07:00N 68°01' E 015°20'0 0.0
2017-Oct-16 06:30N 68°01' E 015°20'0 0.0
2017-Oct-16 06:00N 68°01' E 015°20'0 0.0
2017-Oct-16 05:30N 68°01' E 015°20'0 0.0
2017-Oct-16 05:00N 68°01' E 015°20'0 0.0
2017-Oct-16 04:30N 68°01' E 015°20'0 0.0
2017-Oct-16 04:01N 68°01' E 015°20'0 0.0
2017-Oct-16 03:31N 68°01' E 015°20'0 0.0
2017-Oct-16 03:00N 68°01' E 015°20'0 0.0
2017-Oct-16 02:30N 68°01' E 015°20'0 0.0
2017-Oct-16 02:00N 68°01' E 015°20'0 0.0
2017-Oct-16 01:30N 68°01' E 015°20'0 0.0
2017-Oct-16 00:50N 68°01' E 015°20'0 0.0
2017-Oct-16 00:30N 68°01' E 015°20'0 0.0
2017-Oct-16 00:00N 68°01' E 015°20'0 0.0
2017-Oct-15 23:30N 68°01' E 015°20'0 0.0
2017-Oct-15 23:00N 68°01' E 015°20'0 0.0
2017-Oct-15 22:30N 68°01' E 015°20'0 0.0
2017-Oct-15 22:00N 68°01' E 015°20'1 1.9
2017-Oct-15 21:30N 68°00' E 015°21'5 9.4
2017-Oct-15 21:00N 67°55' E 015°18'4 9.1
2017-Oct-15 20:30N 67°55' E 015°07'5 9.7
2017-Oct-15 20:00N 67°54' E 014°54'510.0
2017-Oct-15 19:30N 67°51' E 014°42'510.1
2017-Oct-15 19:00N 67°48' E 014°32'5 9.7
2017-Oct-15 18:30N 67°43' E 014°31'5 9.2
2017-Oct-15 18:00N 67°41' E 014°42'4 7.9
2017-Oct-15 17:30N 67°39' E 014°51'5 9.7
2017-Oct-15 16:59N 67°38' E 015°04'2 3.8
2017-Oct-15 16:30N 67°39' E 015°07'0 0.0
2017-Oct-15 16:00N 67°39' E 015°07'1 2.2
2017-Oct-15 15:30N 67°38' E 015°06'510.2
2017-Oct-15 15:00N 67°39' E 014°53'6 5.9
2017-Oct-15 14:00N 67°44' E 014°46'0 0.0
2017-Oct-15 13:30N 67°44' E 014°46'0 0.0
2017-Oct-15 13:00N 67°44' E 014°46'0 0.0
2017-Oct-15 12:30N 67°44' E 014°46'0 0.0
2017-Oct-15 11:59N 67°44' E 014°46'0 0.0
2017-Oct-15 11:29N 67°44' E 014°46'0 0.0
2017-Oct-15 11:00N 67°44' E 014°46'2 3.4
2017-Oct-15 10:30N 67°45' E 014°43'5 9.8
2017-Oct-15 10:01N 67°50' E 014°46'5 9.2
2017-Oct-15 09:30N 67°55' E 014°44'5 9.7
2017-Oct-15 09:00N 67°59' E 014°48'5 9.5
2017-Oct-15 08:30N 68°04' E 014°50'5 9.4
2017-Oct-15 08:00N 68°08' E 014°52'4 9.0
2017-Oct-15 07:30N 68°13' E 014°55'4 8.9
2017-Oct-15 07:00N 68°17' E 014°58'5 9.0
2017-Oct-15 06:30N 68°21' E 015°03'5 9.1
2017-Oct-15 06:00N 68°25' E 015°08'4 8.6
2017-Oct-15 05:30N 68°30' E 015°12'4 8.6
2017-Oct-15 05:00N 68°34' E 015°11'5 9.5
2017-Oct-15 04:30N 68°38' E 015°19'5 9.9
2017-Oct-15 04:00N 68°42' E 015°26'5 9.9
2017-Oct-15 03:30N 68°47' E 015°25'510.1
2017-Oct-15 02:59N 68°52' E 015°23'3 6.4
2017-Oct-15 02:30N 68°54' E 015°17'0 0.0
2017-Oct-15 02:00N 68°54' E 015°17'3 6.9
2017-Oct-15 01:30N 68°52' E 015°25'510.4
2017-Oct-15 01:00N 68°47' E 015°26'611.3
2017-Oct-15 00:30N 68°41' E 015°26'5 9.7
2017-Oct-15 00:00N 68°37' E 015°19'5 9.5
2017-Oct-14 23:30N 68°33' E 015°11'5 9.0
2017-Oct-14 23:00N 68°29' E 015°13'5 9.9
2017-Oct-14 22:30N 68°25' E 015°07'510.0
2017-Oct-14 22:00N 68°20' E 015°01'5 9.4
2017-Oct-14 21:30N 68°16' E 014°57'5 9.3
2017-Oct-14 21:00N 68°11' E 014°55'4 8.9
2017-Oct-14 20:30N 68°07' E 014°52'5 9.4
2017-Oct-14 20:00N 68°02' E 014°49'5 9.3
2017-Oct-14 19:30N 67°58' E 014°47'5 9.6
2017-Oct-14 19:00N 67°53' E 014°44'5 9.5
2017-Oct-14 18:30N 67°49' E 014°36'5 9.1
2017-Oct-14 18:00N 67°45' E 014°32'4 7.6
2017-Oct-14 17:30N 67°42' E 014°37'4 7.6
2017-Oct-14 17:00N 67°39' E 014°44'5 9.1
2017-Oct-14 16:30N 67°39' E 014°56'5 9.6
2017-Oct-14 16:00N 67°42' E 015°07'5 9.4
2017-Oct-14 15:30N 67°44' E 015°17'4 6.6
2017-Oct-14 14:58N 67°44' E 015°27'0 0.0
2017-Oct-14 14:30N 67°44' E 015°27'0 0.0
2017-Oct-14 14:00N 67°44' E 015°27'0 0.5
2017-Oct-14 13:30N 67°44' E 015°26'3 5.4
2017-Oct-14 13:00N 67°45' E 015°19'4 7.9
2017-Oct-14 12:30N 67°43' E 015°11'4 8.6
2017-Oct-14 12:00N 67°40' E 015°01'4 8.4
2017-Oct-14 11:30N 67°39' E 014°51'3 6.6
2017-Oct-14 10:59N 67°40' E 014°43'4 9.3
2017-Oct-14 10:30N 67°45' E 014°43'5 9.3
2017-Oct-14 10:00N 67°49' E 014°45'3 7.0
2017-Oct-14 09:30N 67°53' E 014°44'510.2
2017-Oct-14 09:00N 67°58' E 014°47'510.1
2017-Oct-14 08:29N 68°03' E 014°50'510.3
2017-Oct-14 08:00N 68°08' E 014°53'510.1
2017-Oct-14 07:30N 68°13' E 014°56'510.3
2017-Oct-14 07:00N 68°18' E 014°58'510.3
2017-Oct-14 06:30N 68°23' E 015°04'510.0
2017-Oct-14 06:00N 68°27' E 015°11'4 9.2
2017-Oct-14 05:30N 68°32' E 015°09'510.2
2017-Oct-14 05:00N 68°36' E 015°16'510.7
2017-Oct-14 04:30N 68°40' E 015°25'5 9.0
2017-Oct-14 04:00N 68°45' E 015°25'510.6
2017-Oct-14 03:30N 68°50' E 015°25'510.0
2017-Oct-14 03:00N 68°54' E 015°18'0 0.2
2017-Oct-14 02:30N 68°54' E 015°17'2 3.2
2017-Oct-14 02:00N 68°54' E 015°22'510.1
2017-Oct-14 01:31N 68°49' E 015°26'610.9
2017-Oct-14 01:00N 68°44' E 015°26'510.5
2017-Oct-14 00:30N 68°39' E 015°22'5 9.9
2017-Oct-14 00:00N 68°35' E 015°13'5 9.5
2017-Oct-13 23:30N 68°30' E 015°10'4 8.5
2017-Oct-13 23:00N 68°26' E 015°10'510.0
2017-Oct-13 22:30N 68°22' E 015°03'5 9.3
2017-Oct-13 22:00N 68°18' E 014°58'5 9.6
2017-Oct-13 21:30N 68°13' E 014°56'5 9.3
2017-Oct-13 21:00N 68°08' E 014°53'5 9.0
2017-Oct-13 20:30N 68°04' E 014°50'5 9.3
2017-Oct-13 20:00N 67°59' E 014°47'5 9.4
2017-Oct-13 19:30N 67°55' E 014°45'5 9.1
2017-Oct-13 18:59N 67°51' E 014°39'5 9.5
2017-Oct-13 18:30N 67°47' E 014°32'4 8.8
2017-Oct-13 18:00N 67°43' E 014°33'4 8.7
2017-Oct-13 17:30N 67°40' E 014°42'5 9.3
2017-Oct-13 17:00N 67°38' E 014°54'5 9.4
2017-Oct-13 16:29N 67°39' E 015°06'1 1.6
2017-Oct-13 15:59N 67°39' E 015°07'0 0.0
2017-Oct-13 15:30N 67°39' E 015°07'2 4.1
2017-Oct-13 14:59N 67°38' E 015°03'510.1
2017-Oct-13 14:30N 67°39' E 014°50'4 8.1
2017-Oct-13 14:00N 67°42' E 014°42'510.7
2017-Oct-13 13:30N 67°47' E 014°43'4 8.0
2017-Oct-13 13:00N 67°51' E 014°47'4 8.9
2017-Oct-13 12:31N 67°54' E 014°55'610.9
2017-Oct-13 12:00N 67°54' E 015°10'510.3
2017-Oct-13 11:30N 67°57' E 015°20'4 7.3
2017-Oct-13 11:00N 68°01' E 015°20'0 0.0
2017-Oct-13 10:30N 68°01' E 015°20'0 0.0
2017-Oct-13 10:00N 68°01' E 015°20'0 0.0
2017-Oct-13 09:30N 68°01' E 015°20'0 0.0
2017-Oct-13 09:00N 68°01' E 015°20'0 0.0
2017-Oct-13 08:30N 68°01' E 015°20'0 0.0
2017-Oct-13 08:00N 68°01' E 015°20'23 1.5
2017-Oct-12 16:24N 67°38' E 015°06'4 9.3
2017-Oct-12 15:59N 67°38' E 014°56'510.8
2017-Oct-12 15:30N 67°39' E 014°43'610.9
2017-Oct-12 15:00N 67°45' E 014°43'5 9.7
2017-Oct-12 14:30N 67°50' E 014°45'2 3.6
2017-Oct-12 14:00N 67°51' E 014°47'510.2
2017-Oct-12 13:30N 67°54' E 014°58'510.5
2017-Oct-12 13:00N 67°54' E 015°12'5 9.8
2017-Oct-12 12:30N 67°58' E 015°20'3 4.7
2017-Oct-12 11:54N 68°01' E 015°20'0 0.1
2017-Oct-12 11:24N 68°01' E 015°20'0 0.0
2017-Oct-12 11:00N 68°01' E 015°20'0 0.0
2017-Oct-12 10:30N 68°01' E 015°20'0 0.0
2017-Oct-12 10:00N 68°01' E 015°20'0 0.0
2017-Oct-12 09:30N 68°01' E 015°20'0 0.0
2017-Oct-12 09:00N 68°01' E 015°20'0 0.0
2017-Oct-12 08:30N 68°01' E 015°20'0 0.0
2017-Oct-12 08:00N 68°01' E 015°20'0 0.0
2017-Oct-12 07:30N 68°01' E 015°20'0 0.0
2017-Oct-12 07:00N 68°01' E 015°20'0 0.0
2017-Oct-12 06:30N 68°01' E 015°20'0 0.0
2017-Oct-12 06:00N 68°01' E 015°20'0 0.0
2017-Oct-12 05:30N 68°01' E 015°20'0 0.0
2017-Oct-12 05:00N 68°01' E 015°20'0 0.0
2017-Oct-12 04:26N 68°01' E 015°20'0 0.0
2017-Oct-12 03:59N 68°01' E 015°20'0 0.0
2017-Oct-12 03:29N 68°01' E 015°20'0 0.0
2017-Oct-12 02:59N 68°01' E 015°20'0 0.0
2017-Oct-12 02:05N 68°01' E 015°20'0 0.0
2017-Oct-12 01:59N 68°01' E 015°20'0 0.0
2017-Oct-12 01:29N 68°01' E 015°20'0 0.0
2017-Oct-12 00:41N 68°01' E 015°20'0 0.0
2017-Oct-12 00:29N 68°01' E 015°20'0 0.0
2017-Oct-12 00:00N 68°01' E 015°20'0 0.0
2017-Oct-11 23:03N 68°01' E 015°20'0 0.0
2017-Oct-11 22:46N 68°01' E 015°20'0 0.0
2017-Oct-11 22:04N 68°01' E 015°20'0 0.1
2017-Oct-11 22:00N 68°01' E 015°20'4 7.9
2017-Oct-11 21:30N 67°57' E 015°20'5 9.1
2017-Oct-11 21:00N 67°54' E 015°11'5 9.3
2017-Oct-11 20:30N 67°54' E 014°58'5 9.8
2017-Oct-11 20:00N 67°52' E 014°47'5 9.7
2017-Oct-11 19:30N 67°49' E 014°36'5 9.5
2017-Oct-11 19:00N 67°45' E 014°31'4 8.8
2017-Oct-11 18:30N 67°42' E 014°39'4 8.7
2017-Oct-11 18:00N 67°39' E 014°48'510.7
2017-Oct-11 17:30N 67°38' E 015°02'3 5.1
2017-Oct-11 17:00N 67°39' E 015°07'22 1.3
2017-Oct-11 00:00N 68°01' E 015°20'0 0.0
2017-Oct-10 23:30N 68°01' E 015°20'0 0.0
2017-Oct-10 22:53N 68°01' E 015°20'0 0.0
2017-Oct-10 22:30N 68°01' E 015°20'0 0.0
2017-Oct-10 22:00N 68°01' E 015°20'3 6.0
2017-Oct-10 21:30N 67°58' E 015°20'4 8.4
2017-Oct-10 21:00N 67°55' E 015°14'4 8.9
2017-Oct-10 20:30N 67°55' E 015°02'5 9.3
2017-Oct-10 20:00N 67°53' E 014°50'4 9.2
2017-Oct-10 19:30N 67°51' E 014°40'4 8.9
2017-Oct-10 19:00N 67°47' E 014°32'5 9.2
2017-Oct-10 18:30N 67°43' E 014°32'5 9.5
2017-Oct-10 18:00N 67°40' E 014°43'4 8.2
2017-Oct-10 17:30N 67°39' E 014°52'5 9.8
2017-Oct-10 17:00N 67°38' E 015°05'1 2.4
2017-Oct-10 16:27N 67°39' E 015°07'0 0.0
2017-Oct-10 16:00N 67°39' E 015°07'0 0.1
2017-Oct-10 15:30N 67°39' E 015°07'4 8.7
2017-Oct-10 15:00N 67°38' E 014°56'9 8.6
2017-Oct-10 14:00N 67°45' E 014°43'510.2
2017-Oct-10 13:30N 67°50' E 014°46'4 8.5
2017-Oct-10 13:00N 67°53' E 014°53'510.8
2017-Oct-10 12:30N 67°55' E 015°07'510.2
2017-Oct-10 12:00N 67°56' E 015°20'510.1
2017-Oct-10 11:30N 68°01' E 015°20'0 0.0
2017-Oct-10 11:00N 68°01' E 015°20'0 0.0
2017-Oct-10 10:30N 68°01' E 015°20'0 0.0
2017-Oct-10 10:00N 68°01' E 015°20'0 0.0
2017-Oct-10 09:30N 68°01' E 015°20'0 0.0
2017-Oct-10 09:00N 68°01' E 015°20'0 0.0
2017-Oct-10 08:30N 68°01' E 015°20'0 0.0
2017-Oct-10 08:00N 68°01' E 015°20'0 0.0
2017-Oct-10 07:30N 68°01' E 015°20'0 0.0
2017-Oct-10 07:00N 68°01' E 015°20'0 0.0
2017-Oct-10 06:30N 68°01' E 015°20'0 0.0
2017-Oct-10 06:00N 68°01' E 015°20'0 0.0
2017-Oct-10 05:30N 68°01' E 015°20'0 0.0
2017-Oct-10 05:00N 68°01' E 015°20'0 0.0
2017-Oct-10 04:30N 68°01' E 015°20'0 0.0
2017-Oct-10 04:00N 68°01' E 015°20'0 0.0
2017-Oct-10 03:30N 68°01' E 015°20'0 0.0
2017-Oct-10 03:00N 68°01' E 015°20'0 0.0
2017-Oct-10 02:30N 68°01' E 015°20'0 0.0
2017-Oct-10 02:00N 68°01' E 015°20'0 0.0
2017-Oct-10 01:30N 68°01' E 015°20'0 0.0
2017-Oct-10 01:00N 68°01' E 015°20'0 0.0
2017-Oct-10 00:30N 68°01' E 015°20'0 0.0
2017-Oct-09 23:59N 68°01' E 015°20'0 0.0
2017-Oct-09 23:30N 68°01' E 015°20'0 0.0
2017-Oct-09 23:00N 68°01' E 015°20'0 0.0
2017-Oct-09 22:29N 68°01' E 015°20'2 3.4
2017-Oct-09 22:00N 67°59' E 015°20'4 8.8
2017-Oct-09 21:30N 67°55' E 015°17'4 8.9
2017-Oct-09 21:00N 67°55' E 015°06'5 9.4
2017-Oct-09 20:30N 67°54' E 014°53'5 9.4
2017-Oct-09 20:00N 67°51' E 014°42'5 9.3
2017-Oct-09 19:30N 67°48' E 014°33'5 9.5
2017-Oct-09 19:00N 67°44' E 014°31'5 9.2
2017-Oct-09 18:30N 67°41' E 014°41'4 8.1
2017-Oct-09 18:00N 67°39' E 014°50'5 9.7
2017-Oct-09 17:30N 67°38' E 015°03'2 4.3
2017-Oct-09 17:00N 67°39' E 015°07'0 0.0
2017-Oct-09 16:30N 67°39' E 015°07'0 0.0
2017-Oct-09 16:00N 67°39' E 015°07'0 0.0
2017-Oct-09 15:30N 67°39' E 015°07'1 2.9
2017-Oct-09 15:00N 67°38' E 015°05'510.6
2017-Oct-09 14:29N 67°39' E 014°51'4 8.8
2017-Oct-09 14:00N 67°42' E 014°42'611.6
2017-Oct-09 13:30N 67°47' E 014°44'4 8.0
2017-Oct-09 12:59N 67°51' E 014°48'4 9.1
2017-Oct-09 12:30N 67°54' E 014°57'510.7
2017-Oct-09 11:59N 67°54' E 015°11'510.0
2017-Oct-09 11:30N 67°58' E 015°20'3 5.6
2017-Oct-09 10:55N 68°01' E 015°20'0 0.0
2017-Oct-09 10:25N 68°01' E 015°20'0 0.0
2017-Oct-09 09:58N 68°01' E 015°20'0 0.0
2017-Oct-09 09:25N 68°01' E 015°20'0 0.0
2017-Oct-09 08:55N 68°01' E 015°20'0 0.0
2017-Oct-09 08:25N 68°01' E 015°20'0 0.0
2017-Oct-09 07:55N 68°01' E 015°20'0 0.0
2017-Oct-09 07:25N 68°01' E 015°20'  

Dump ship's entire track history